Time;durP1;ratioP1;P1;durP2;ratioP2;P2;SDS_P1;SDS_P2;PMS_P1;PMS_P2;Temp;Humidity;BMP_temperature;BMP_pressure;BME280_temperature;BME280_humidity;BME280_pressure;Samples;Min_cycle;Max_cycle;Signal;HPM_P1;HPM_P2
2021/08/20 00:01:33;;;;;;;1.50;0.60;;;;;;;13.83;94.20;100757.47;5040910;28;20525;-90
2021/08/20 00:04:06;;;;;;;1.13;0.57;;;;;;;13.94;93.76;100764.41;5050956;28;20060;-89
2021/08/20 00:06:40;;;;;;;1.30;0.55;;;;;;;13.81;94.88;100761.63;5039238;28;20505;-87
2021/08/20 00:09:13;;;;;;;1.27;0.70;;;;;;;13.74;94.36;100754.63;5050914;28;20053;-90
2021/08/20 00:11:42;;;;;;;1.00;0.60;;;;;;;13.74;95.17;100759.28;5045421;28;20049;-89
2021/08/20 00:14:15;;;;;;;0.57;0.57;;;;;;;13.88;94.04;100768.34;5050735;28;20065;-90
2021/08/20 00:16:45;;;;;;;0.90;0.60;;;;;;;13.83;95.30;100765.69;5044318;28;20053;-90
2021/08/20 00:19:18;;;;;;;0.57;0.55;;;;;;;13.75;94.90;100759.00;5052064;28;20040;-88
2021/08/20 00:21:52;;;;;;;0.60;0.60;;;;;;;13.74;95.11;100760.09;5042039;28;20053;-90
2021/08/20 00:24:25;;;;;;;1.05;0.60;;;;;;;13.73;95.39;100754.94;5051948;28;20044;-90
2021/08/20 00:26:58;;;;;;;1.38;0.60;;;;;;;13.68;95.34;100755.00;5048610;28;20064;-88
2021/08/20 00:29:32;;;;;;;0.82;0.60;;;;;;;13.75;95.22;100759.00;5045954;28;20052;-89
2021/08/20 00:32:01;;;;;;;2.30;0.77;;;;;;;13.74;95.65;100762.00;5042031;28;20049;-91
2021/08/20 00:34:35;;;;;;;1.08;0.60;;;;;;;13.73;94.42;100760.41;5053354;28;20052;-89
2021/08/20 00:37:08;;;;;;;0.77;0.63;;;;;;;13.63;95.24;100755.91;5058150;28;20481;-89
2021/08/20 00:39:38;;;;;;;0.90;0.60;;;;;;;13.66;95.14;100752.56;5051940;28;20045;-88
2021/08/20 00:42:12;;;;;;;3.08;0.77;;;;;;;13.70;94.42;100755.50;5049580;28;20068;-88
2021/08/20 00:44:45;;;;;;;0.88;0.65;;;;;;;13.61;95.71;100748.00;5051298;28;20055;-89
2021/08/20 00:47:14;;;;;;;1.33;0.82;;;;;;;13.64;95.19;100752.06;5048622;28;20079;-90
2021/08/20 00:49:48;;;;;;;1.02;0.63;;;;;;;13.60;95.38;100742.81;5044659;28;20052;-90
2021/08/20 00:52:24;;;;;;;1.23;0.77;;;;;;;13.72;94.72;100737.69;5046731;28;20054;-89
2021/08/20 00:54:57;;;;;;;1.27;0.73;;;;;;;13.70;95.29;100755.50;5048802;28;20492;-88
2021/08/20 00:57:31;;;;;;;1.38;0.85;;;;;;;13.67;95.46;100745.19;5048257;28;20053;-89
2021/08/20 01:00:05;;;;;;;0.68;0.60;;;;;;;13.60;96.67;100745.56;5052767;28;20037;-90
2021/08/20 01:02:40;;;;;;;1.30;0.80;;;;;;;13.64;97.07;100752.06;5037159;28;20046;-88
2021/08/20 01:05:18;;;;;;;1.38;0.70;;;;;;;13.54;97.49;100753.03;5065006;28;20052;-89
2021/08/20 01:07:53;;;;;;;1.75;0.80;;;;;;;13.51;97.85;100756.38;5049044;28;20367;-89
2021/08/20 01:10:21;;;;;;;1.25;0.70;;;;;;;13.46;98.08;100761.09;5050509;28;20052;-89
2021/08/20 01:12:49;;;;;;;1.15;0.65;;;;;;;13.37;98.54;100759.03;5038888;28;20045;-87
2021/08/20 01:15:22;;;;;;;1.95;0.80;;;;;;;13.25;98.61;100761.38;5043610;28;20381;-89
2021/08/20 01:17:54;;;;;;;1.25;0.80;;;;;;;13.25;99.00;100762.19;5041987;28;20528;-88
2021/08/20 01:20:23;;;;;;;2.30;0.90;;;;;;;13.17;99.41;100751.91;5049671;28;20048;-88
2021/08/20 01:22:58;;;;;;;2.22;0.90;;;;;;;13.24;98.66;100752.38;5047399;28;20433;-89
2021/08/20 01:25:34;;;;;;;1.52;0.85;;;;;;;13.24;99.28;100746.91;5048577;28;20041;-86
2021/08/20 01:28:09;;;;;;;0.90;0.80;;;;;;;13.30;98.88;100749.56;5040676;28;20054;-88
2021/08/20 01:30:42;;;;;;;1.58;0.95;;;;;;;13.27;100.00;100751.78;5048731;28;20040;-88
2021/08/20 01:33:16;;;;;;;2.20;1.00;;;;;;;13.27;99.72;100751.78;5048978;28;20052;-89
2021/08/20 01:35:49;;;;;;;1.67;0.88;;;;;;;13.30;99.43;100760.47;5045925;28;20041;-89
2021/08/20 01:38:23;;;;;;;1.35;0.80;;;;;;;13.34;99.08;100759.63;5047444;28;20049;-88
2021/08/20 01:40:54;;;;;;;1.13;0.70;;;;;;;13.35;99.53;100754.94;5050880;28;20373;-88
2021/08/20 01:43:27;;;;;;;1.67;0.80;;;;;;;13.34;99.26;100748.69;5049546;28;20053;-89
2021/08/20 01:46:00;;;;;;;1.40;0.93;;;;;;;13.33;98.71;100748.97;5044122;28;20517;-90
2021/08/20 01:48:33;;;;;;;1.67;0.88;;;;;;;13.34;100.00;100751.41;5049776;28;20041;-91
2021/08/20 01:51:07;;;;;;;2.65;0.90;;;;;;;13.30;100.00;100749.56;5043948;28;20045;-88
2021/08/20 01:53:35;;;;;;;1.50;0.95;;;;;;;13.30;100.00;100746.81;5049539;28;20061;-90
2021/08/20 01:56:14;;;;;;;1.33;0.98;;;;;;;13.25;99.97;100740.31;5044185;28;20058;-90
2021/08/20 01:58:49;;;;;;;1.23;0.80;;;;;;;13.34;99.86;100745.13;5047218;28;20509;-89
2021/08/20 02:01:24;;;;;;;1.13;0.80;;;;;;;13.35;99.76;100747.59;5048310;28;20382;-90
2021/08/20 02:03:57;;;;;;;1.55;0.82;;;;;;;13.33;100.00;100740.78;5048520;28;20056;-89
2021/08/20 02:06:33;;;;;;;1.25;0.80;;;;;;;13.32;99.91;100739.94;5057593;28;20053;-90
2021/08/20 02:09:03;;;;;;;1.00;0.80;;;;;;;13.30;99.84;100744.09;5048365;28;20060;-90
2021/08/20 02:11:35;;;;;;;1.30;0.80;;;;;;;13.31;100.00;100743.78;5044736;28;20037;-90
2021/08/20 02:14:10;;;;;;;4.25;1.00;;;;;;;13.37;99.41;100733.66;5047509;28;20059;-90
2021/08/20 02:16:40;;;;;;;2.35;1.00;;;;;;;13.39;98.57;100742.34;5045039;28;20045;-90
2021/08/20 02:19:17;;;;;;;;;;;;;;;13.39;99.34;100743.16;5041045;28;20041;-88
2021/08/20 02:21:50;;;;;;;1.90;0.98;;;;;;;13.26;99.91;100728.28;5041309;28;19935;-90
2021/08/20 02:24:31;;;;;;;1.83;0.90;;;;;;;13.41;98.51;100737.41;5045666;28;20041;-89
2021/08/20 02:27:02;;;;;;;1.73;0.90;;;;;;;13.41;98.81;100734.66;5041355;28;20061;-90
2021/08/20 02:29:31;;;;;;;2.53;0.98;;;;;;;13.33;99.75;100741.59;5041812;28;20063;-88
2021/08/20 02:32:06;;;;;;;1.50;1.00;;;;;;;13.34;99.81;100745.94;5048083;28;20056;-91
2021/08/20 02:34:40;;;;;;;2.90;1.13;;;;;;;13.33;99.96;100740.78;5046186;28;20053;-90
2021/08/20 02:37:13;;;;;;;1.60;1.13;;;;;;;13.31;100.00;100737.50;5045160;28;20413;-88
2021/08/20 02:39:46;;;;;;;1.10;0.90;;;;;;;13.33;100.00;100746.25;5044505;28;20084;-87
2021/08/20 02:42:21;;;;;;;2.25;1.20;;;;;;;13.34;99.94;100743.22;5046684;28;20064;-90
2021/08/20 02:44:54;;;;;;;3.03;1.20;;;;;;;13.35;100.00;100741.28;5050212;28;20053;-91
2021/08/20 02:47:28;;;;;;;3.10;1.00;;;;;;;13.31;99.96;100742.97;5045159;28;20401;-89
2021/08/20 02:49:57;;;;;;;2.42;1.05;;;;;;;13.31;98.85;100748.44;5044748;28;20040;-88
2021/08/20 02:52:26;;;;;;;2.30;1.17;;;;;;;13.35;100.00;100742.13;5048546;28;20497;-88
2021/08/20 02:54:59;;;;;;;1.88;1.00;;;;;;;13.32;100.00;100736.41;5047795;28;20060;-91
2021/08/20 02:57:40;;;;;;;2.20;1.13;;;;;;;13.31;100.00;100748.44;5048256;28;20048;-89
2021/08/20 03:00:14;;;;;;;2.28;1.00;;;;;;;13.35;99.32;100744.00;5046999;28;20048;-90
2021/08/20 03:02:55;;;;;;;2.10;1.10;;;;;;;13.27;99.72;100727.19;5064650;28;20056;-89
2021/08/20 03:05:25;;;;;;;1.85;1.10;;;;;;;13.16;99.60;100709.31;5049992;28;20616;-89
2021/08/20 03:08:00;;;;;;;2.50;1.20;;;;;;;13.33;99.53;100738.06;5050423;28;20060;-90
2021/08/20 03:10:35;;;;;;;1.30;1.00;;;;;;;13.38;99.53;100737.97;5053857;28;20045;-90
2021/08/20 03:13:11;;;;;;;5.25;1.10;;;;;;;13.41;99.13;100732.75;5049900;28;20056;-90
2021/08/20 03:15:50;;;;;;;2.22;1.10;;;;;;;13.32;99.62;100736.41;5052101;28;20045;-89
2021/08/20 03:18:18;;;;;;;1.80;0.95;;;;;;;13.24;99.74;100735.97;5051094;28;20053;-89
2021/08/20 03:20:52;;;;;;;1.45;1.00;;;;;;;13.24;99.55;100735.97;5046185;28;20065;-90
2021/08/20 03:23:36;;;;;;;2.20;1.17;;;;;;;13.14;100.00;100725.19;5045364;28;20056;-91
2021/08/20 03:26:09;;;;;;;1.70;1.05;;;;;;;13.17;100.00;100743.72;5050826;28;20053;-91
2021/08/20 03:28:58;;;;;;;1.92;1.00;;;;;;;13.19;100.00;100749.72;5053023;28;20059;-90
2021/08/20 03:31:36;;;;;;;1.08;0.90;;;;;;;13.21;100.00;100750.22;5051066;28;20041;-91
2021/08/20 03:34:10;;;;;;;2.33;1.10;;;;;;;13.16;100.00;100739.38;5053185;28;20052;-90
2021/08/20 03:36:43;;;;;;;1.67;1.10;;;;;;;13.22;100.00;100753.78;5051996;28;20042;-91
2021/08/20 03:39:32;;;;;;;2.67;1.02;;;;;;;13.22;100.00;100753.78;5052855;28;20045;-90
2021/08/20 03:42:05;;;;;;;2.08;1.02;;;;;;;13.20;100.00;100755.97;5042862;28;20049;-90
2021/08/20 03:44:46;;;;;;;1.63;1.00;;;;;;;13.21;100.00;100754.88;5059571;28;20494;-90
2021/08/20 03:47:15;;;;;;;1.23;1.00;;;;;;;13.14;100.00;100757.97;5048348;28;20056;-91
2021/08/20 03:49:52;;;;;;;2.28;1.20;;;;;;;13.16;100.00;100760.41;5051536;28;20045;-89
2021/08/20 03:52:26;;;;;;;1.42;0.90;;;;;;;13.15;100.00;100756.88;5047998;28;20489;-89
2021/08/20 03:54:59;;;;;;;2.17;1.10;;;;;;;13.09;100.00;100758.03;5050967;28;20052;-89
2021/08/20 03:57:36;;;;;;;1.90;1.08;;;;;;;13.06;100.00;100756.75;5049226;28;20057;-89
2021/08/20 04:00:13;;;;;;;1.90;1.10;;;;;;;13.04;100.00;100760.88;5064588;28;20493;-90
2021/08/20 04:02:47;;;;;;;1.58;1.00;;;;;;;13.00;100.00;100754.38;5043210;28;20387;-89
2021/08/20 04:05:22;;;;;;;2.05;1.00;;;;;;;13.03;100.00;100759.22;5043714;28;20532;-89
2021/08/20 04:07:57;;;;;;;2.05;1.10;;;;;;;12.97;100.00;100758.50;5044734;28;20045;-90
2021/08/20 04:10:59;;;;;;;1.83;1.02;;;;;;;12.99;100.00;100760.94;5038843;28;20045;-90
2021/08/20 04:13:49;;;;;;;1.83;0.93;;;;;;;12.98;100.00;100756.56;5049503;28;20050;-90
2021/08/20 04:16:30;;;;;;;1.42;1.00;;;;;;;12.98;100.00;100759.28;5048317;28;20057;-90
2021/08/20 04:18:59;;;;;;;1.35;1.00;;;;;;;12.99;100.00;100761.72;5059836;28;20417;-90
2021/08/20 04:21:33;;;;;;;1.42;1.00;;;;;;;12.98;100.00;100760.13;5046225;28;20120;-89
2021/08/20 04:24:03;;;;;;;2.20;1.20;;;;;;;12.95;100.00;100760.69;5045675;28;20059;-90
2021/08/20 04:26:37;;;;;;;1.80;1.00;;;;;;;12.91;100.00;100765.13;5050040;28;20377;-89
2021/08/20 04:29:34;;;;;;;1.77;1.02;;;;;;;12.96;100.00;100775.19;5033784;28;21645;-90
2021/08/20 04:32:44;;;;;;;1.33;0.90;;;;;;;12.92;100.00;100767.56;5048631;28;20037;-90
2021/08/20 04:35:46;;;;;;;1.17;0.90;;;;;;;12.93;100.00;100768.38;5045415;28;20041;-89
2021/08/20 04:38:44;;;;;;;1.77;1.20;;;;;;;12.92;100.00;100759.34;5045907;28;20462;-89
2021/08/20 04:41:43;;;;;;;1.70;1.10;;;;;;;12.99;100.00;100778.13;5043147;28;20501;-90
2021/08/20 04:44:36;;;;;;;1.45;1.00;;;;;;;12.98;100.00;100765.59;5047735;28;20431;-89
2021/08/20 04:47:09;;;;;;;2.67;1.20;;;;;;;13.02;100.00;100768.53;5052465;28;20049;-89
2021/08/20 04:50:10;;;;;;;1.92;1.15;;;;;;;12.98;100.00;100772.94;5051974;28;20052;-88
2021/08/20 04:53:01;;;;;;;1.98;1.20;;;;;;;13.01;100.00;100783.28;5019412;28;20057;-89
2021/08/20 04:55:43;;;;;;;1.58;1.08;;;;;;;12.95;100.00;100779.00;5051596;28;20044;-89
2021/08/20 04:58:16;;;;;;;2.45;1.23;;;;;;;13.00;100.00;100776.22;5046490;28;20057;-87
2021/08/20 05:00:54;;;;;;;1.80;1.10;;;;;;;12.99;100.00;100772.66;5051320;28;20052;-90
2021/08/20 05:03:27;;;;;;;2.95;1.40;;;;;;;12.98;100.00;100778.41;5046355;28;20049;-89
2021/08/20 05:06:02;;;;;;;2.08;1.23;;;;;;;12.95;100.00;100785.28;5051743;28;20067;-89
2021/08/20 05:08:31;;;;;;;2.33;1.10;;;;;;;12.98;100.00;100786.63;5051515;28;20067;-88
2021/08/20 05:10:59;;;;;;;2.45;1.23;;;;;;;13.02;100.00;100787.66;5048400;28;20053;-89
2021/08/20 05:13:27;;;;;;;1.85;1.20;;;;;;;13.04;100.00;100799.13;5039491;28;20052;-88
2021/08/20 05:15:56;;;;;;;2.30;1.20;;;;;;;13.05;100.00;100798.00;5050596;28;20064;-89
2021/08/20 05:18:29;;;;;;;2.67;1.27;;;;;;;13.03;100.00;100798.28;5049666;28;20067;-89
2021/08/20 05:20:57;;;;;;;1.98;1.13;;;;;;;13.04;100.00;100799.13;5051085;28;20056;-88
2021/08/20 05:23:27;;;;;;;2.28;1.23;;;;;;;13.05;100.00;100789.78;5051959;28;20037;-89
2021/08/20 05:26:00;;;;;;;2.03;1.20;;;;;;;13.07;100.00;100793.84;5051896;28;20048;-89
2021/08/20 05:28:33;;;;;;;1.70;1.15;;;;;;;13.10;100.00;100798.75;5051346;28;20056;-89
2021/08/20 05:31:06;;;;;;;1.80;1.20;;;;;;;13.10;100.00;100787.00;5050989;28;20052;-88
2021/08/20 05:33:39;;;;;;;1.80;1.20;;;;;;;13.14;100.00;100801.69;5051172;28;20048;-89
2021/08/20 05:36:14;;;;;;;2.33;1.20;;;;;;;13.09;100.00;100799.03;5049536;28;20064;-88
2021/08/20 05:38:43;;;;;;;2.75;1.33;;;;;;;13.13;100.00;100791.88;5050635;28;20044;-89
2021/08/20 05:41:17;;;;;;;2.15;1.40;;;;;;;13.07;100.00;100788.41;5048615;28;20053;-89
2021/08/20 05:43:50;;;;;;;1.98;1.10;;;;;;;13.14;100.00;100798.16;5060017;28;20405;-89
2021/08/20 05:46:18;;;;;;;1.30;1.00;;;;;;;13.03;100.00;100775.63;5050968;28;20513;-88
2021/08/20 05:48:51;;;;;;;2.25;1.27;;;;;;;13.14;100.00;100787.22;5040987;28;20041;-89
2021/08/20 05:51:25;;;;;;;2.08;1.23;;;;;;;13.15;100.00;100786.13;5045834;28;20427;-89
2021/08/20 05:54:00;;;;;;;3.47;1.40;;;;;;;13.16;100.00;100796.78;5042331;28;20048;-89
2021/08/20 05:56:33;;;;;;;5.20;1.40;;;;;;;13.08;100.00;100794.69;5052713;28;20082;-89
2021/08/20 05:59:16;;;;;;;2.92;1.40;;;;;;;13.08;100.00;100792.75;5044234;28;20044;-89
2021/08/20 06:01:49;;;;;;;2.10;1.15;;;;;;;13.12;100.00;100797.63;5049585;28;20654;-89
2021/08/20 06:04:17;;;;;;;2.95;1.20;;;;;;;13.08;100.00;100792.75;5053977;28;20046;-90
2021/08/20 06:06:45;;;;;;;1.77;1.20;;;;;;;13.12;100.00;100808.56;5050864;28;20053;-89
2021/08/20 06:09:21;;;;;;;2.35;1.20;;;;;;;13.09;100.00;100809.97;5047184;28;20401;-89
2021/08/20 06:12:24;;;;;;;1.25;1.00;;;;;;;13.07;100.00;100812.97;5049240;28;20420;-89
2021/08/20 06:14:58;;;;;;;1.38;1.00;;;;;;;13.15;100.00;100814.25;5052757;28;20049;-90
2021/08/20 06:17:26;;;;;;;1.75;1.10;;;;;;;13.18;100.00;100824.59;5052148;28;20061;-90
2021/08/20 06:19:59;;;;;;;1.40;1.00;;;;;;;13.17;100.00;100817.50;5053718;28;20548;-90
2021/08/20 06:22:33;;;;;;;1.48;1.00;;;;;;;13.25;100.00;100816.03;5054544;28;20053;-90
2021/08/20 06:25:10;;;;;;;1.17;0.93;;;;;;;13.29;100.00;100810.81;5051288;28;20044;-91
2021/08/20 06:27:38;;;;;;;1.35;1.05;;;;;;;13.29;100.00;100810.81;5054108;28;20501;-91
2021/08/20 06:30:12;;;;;;;1.52;1.05;;;;;;;13.31;100.00;100824.97;5052766;28;20398;-92
2021/08/20 06:32:45;;;;;;;1.40;0.90;;;;;;;13.30;100.00;100820.63;5048704;28;20052;-91
2021/08/20 06:35:13;;;;;;;1.17;0.90;;;;;;;13.28;100.00;100826.38;5047158;28;20049;-91
2021/08/20 06:37:41;;;;;;;2.75;1.10;;;;;;;13.26;100.00;100825.88;5055783;28;20076;-90
2021/08/20 06:40:16;;;;;;;1.48;1.00;;;;;;;13.20;100.00;100818.84;5075768;28;20049;-91
2021/08/20 06:43:03;;;;;;;1.23;0.90;;;;;;;13.21;100.00;100828.66;5054305;28;20053;-90
2021/08/20 06:45:38;;;;;;;1.38;1.00;;;;;;;13.28;100.00;100834.56;5058834;28;20049;-92
2021/08/20 06:48:06;;;;;;;1.73;1.02;;;;;;;13.29;100.00;100822.53;5055020;28;20489;-92
2021/08/20 06:50:45;;;;;;;1.08;0.90;;;;;;;13.43;100.00;100842.59;5046543;28;20049;-89
2021/08/20 06:53:22;;;;;;;1.10;0.80;;;;;;;13.42;100.00;100834.69;5035463;28;20057;-92
2021/08/20 06:55:51;;;;;;;1.52;0.88;;;;;;;13.24;100.00;100811.66;5033505;28;20061;-89
2021/08/20 06:58:27;;;;;;;1.13;0.80;;;;;;;13.47;100.00;100833.81;5035452;28;20064;-91
2021/08/20 07:01:00;;;;;;;1.02;0.80;;;;;;;13.54;100.00;100840.53;5035071;28;20056;-90
2021/08/20 07:03:33;;;;;;;1.45;0.90;;;;;;;13.43;100.00;100815.25;5034451;28;20049;-89
2021/08/20 07:06:54;;;;;;;1.33;0.80;;;;;;;13.53;100.00;100829.88;5034991;28;20045;-91
2021/08/20 07:09:53;;;;;;;1.30;1.00;;;;;;;13.54;100.00;100828.78;5039411;28;20045;-89
2021/08/20 07:12:28;;;;;;;1.58;0.77;;;;;;;13.27;100.00;100792.78;5039751;28;20057;-90
2021/08/20 07:15:01;;;;;;;1.00;0.70;;;;;;;13.37;100.00;100813.72;5039451;28;20059;-88
2021/08/20 07:17:34;;;;;;;0.93;0.70;;;;;;;13.37;100.00;100832.84;5035870;28;20048;-92
2021/08/20 07:20:03;;;;;;;0.63;0.60;;;;;;;13.38;100.00;100839.94;5033536;28;20053;-91
2021/08/20 07:22:32;;;;;;;3.15;0.90;;;;;;;13.43;100.00;100842.59;5034629;28;20053;-88
2021/08/20 07:25:06;;;;;;;1.75;0.82;;;;;;;13.48;100.00;100843.63;5030156;28;20053;-90
2021/08/20 07:27:41;;;;;;;1.00;0.70;;;;;;;13.44;100.00;100837.94;5028231;28;20057;-86
2021/08/20 07:30:14;;;;;;;0.90;0.65;;;;;;;13.71;100.00;100841.91;5026169;28;21488;-87
2021/08/20 07:32:49;;;;;;;1.00;0.73;;;;;;;13.65;100.00;100838.47;5023301;28;20057;-87
2021/08/20 07:35:22;;;;;;;0.85;0.77;;;;;;;13.74;100.00;100827.66;5027399;28;20068;-88
2021/08/20 07:37:55;;;;;;;0.63;0.63;;;;;;;13.79;100.00;100824.84;5029940;28;20057;-90
2021/08/20 07:40:33;;;;;;;1.20;0.70;;;;;;;13.95;100.00;100841.84;5024547;28;20489;-90
2021/08/20 07:43:34;;;;;;;0.90;0.70;;;;;;;13.93;100.00;100853.06;5026042;28;20057;-88
2021/08/20 07:46:02;;;;;;;0.70;0.60;;;;;;;13.85;100.00;100845.53;5027986;28;20509;-92
2021/08/20 07:48:36;;;;;;;0.80;0.60;;;;;;;13.90;100.00;100848.19;5022675;28;20053;-87
2021/08/20 07:51:07;;;;;;;0.80;0.70;;;;;;;13.94;100.00;100842.94;5025430;28;20056;-87
2021/08/20 07:53:41;;;;;;;0.85;0.70;;;;;;;14.16;100.00;100844.22;5022358;28;20057;-86
2021/08/20 07:56:09;;;;;;;1.08;0.73;;;;;;;14.37;100.00;100847.41;5026210;28;20501;-87
2021/08/20 07:58:47;;;;;;;0.70;0.60;;;;;;;14.48;100.00;100848.03;5030059;28;20049;-87
2021/08/20 08:01:15;;;;;;;0.95;0.70;;;;;;;14.59;100.00;100844.78;5033695;28;20132;-87
2021/08/20 08:03:43;;;;;;;0.90;0.63;;;;;;;14.66;100.00;100849.09;5025289;28;20068;-86
2021/08/20 08:06:12;;;;;;;0.70;0.70;;;;;;;14.56;100.00;100850.88;5024835;28;20048;-91
2021/08/20 08:08:45;;;;;;;0.70;0.63;;;;;;;14.53;100.00;100853.41;5029173;28;20053;-91
2021/08/20 08:11:19;;;;;;;0.68;0.68;;;;;;;14.49;100.00;100855.97;5026471;28;20071;-88
2021/08/20 08:13:48;;;;;;;0.85;0.60;;;;;;;14.60;100.00;100859.31;5024640;28;20072;-88
2021/08/20 08:16:17;;;;;;;1.00;0.70;;;;;;;14.60;100.00;100843.69;5028774;28;20061;-86
2021/08/20 08:18:50;;;;;;;1.38;0.70;;;;;;;14.53;100.00;100856.97;5029445;28;20061;-86
2021/08/20 08:21:20;;;;;;;1.50;0.70;;;;;;;14.28;100.00;100848.09;5021113;28;20068;-88
2021/08/20 08:23:48;;;;;;;0.60;0.60;;;;;;;14.50;100.00;100854.00;5021984;28;20057;-87
2021/08/20 08:26:24;;;;;;;0.82;0.75;;;;;;;14.65;100.00;100848.28;5031154;28;21598;-88
2021/08/20 08:28:58;;;;;;;0.90;0.52;;;;;;;14.69;100.00;100870.41;5018227;28;20049;-86
2021/08/20 08:31:32;;;;;;;1.10;0.68;;;;;;;14.71;100.00;100874.47;5020156;28;20057;-88
2021/08/20 08:34:07;;;;;;;0.60;0.60;;;;;;;14.87;100.00;100877.72;5026254;28;20491;-89
2021/08/20 08:36:36;;;;;;;0.70;0.52;;;;;;;14.80;100.00;100885.53;5022115;28;20059;-88
2021/08/20 08:39:04;;;;;;;0.85;0.70;;;;;;;14.71;100.00;100888.16;5023959;28;20053;-86
2021/08/20 08:41:37;;;;;;;1.42;0.77;;;;;;;14.81;100.00;100892.66;5026357;28;20053;-89
2021/08/20 08:44:12;;;;;;;1.00;0.82;;;;;;;14.76;100.00;100890.00;5020106;28;20060;-90
2021/08/20 08:46:47;;;;;;;1.25;0.68;;;;;;;14.69;100.00;100870.41;5023353;28;20053;-90
2021/08/20 08:49:22;;;;;;;0.88;0.60;;;;;;;14.87;100.00;100891.41;5032520;28;20049;-89
2021/08/20 08:51:51;;;;;;;1.55;0.63;;;;;;;15.01;100.00;100890.63;5029223;28;20060;-87
2021/08/20 08:54:19;;;;;;;1.15;0.70;;;;;;;14.93;100.00;100895.69;5024925;28;20061;-86
2021/08/20 08:56:52;;;;;;;1.42;0.80;;;;;;;14.88;100.00;100897.72;5023189;28;20061;-86
2021/08/20 08:59:27;;;;;;;0.90;0.70;;;;;;;14.84;100.00;100896.72;5023209;28;20433;-86
2021/08/20 09:02:20;;;;;;;0.70;0.70;;;;;;;14.65;100.00;100894.03;5025801;28;20053;-89
2021/08/20 09:04:58;;;;;;;1.48;0.80;;;;;;;14.73;100.00;100896.09;5021250;28;20049;-86
2021/08/20 09:07:35;;;;;;;1.25;0.70;;;;;;;14.65;100.00;100883.88;5019566;28;20064;-90
2021/08/20 09:10:20;;;;;;;1.13;0.70;;;;;;;14.74;100.00;100900.47;5026173;28;20060;-86
2021/08/20 09:12:57;;;;;;;0.85;0.70;;;;;;;14.77;100.00;100905.31;5025886;28;20065;-86
2021/08/20 09:15:29;;;;;;;0.77;0.60;;;;;;;14.63;100.00;100900.63;5029428;28;20041;-90
2021/08/20 09:18:04;;;;;;;0.85;0.50;;;;;;;14.72;100.00;100908.16;5025745;28;20059;-85
2021/08/20 09:20:34;;;;;;;0.60;0.60;;;;;;;14.70;100.00;100908.44;5032674;28;20052;-86
2021/08/20 09:23:18;;;;;;;1.05;0.70;;;;;;;14.66;100.00;100906.63;5023754;28;20053;-86
2021/08/20 09:25:52;;;;;;;0.82;0.70;;;;;;;14.67;100.00;100900.84;5024402;28;20052;-86
2021/08/20 09:28:27;;;;;;;0.73;0.68;;;;;;;14.69;100.00;100904.09;5021581;28;20061;-85
2021/08/20 09:31:05;;;;;;;1.02;0.60;;;;;;;14.79;100.00;100906.66;5021728;28;20053;-85
2021/08/20 09:33:48;;;;;;;1.10;0.63;;;;;;;14.92;100.00;100912.44;5021278;28;20045;-85
2021/08/20 09:36:23;;;;;;;1.50;0.80;;;;;;;14.90;100.00;100910.00;5047870;28;20772;-85
2021/08/20 09:38:53;;;;;;;0.80;0.60;;;;;;;14.78;100.00;100915.97;5018640;28;20053;-85
2021/08/20 09:41:31;;;;;;;1.48;0.63;;;;;;;14.85;100.00;100921.06;5019156;28;20053;-85
2021/08/20 09:44:07;;;;;;;0.50;0.50;;;;;;;14.88;100.00;100912.22;5021860;28;20525;-88
2021/08/20 09:46:44;;;;;;;1.52;0.77;;;;;;;14.95;100.00;100912.63;5023112;28;20678;-86
2021/08/20 09:49:17;;;;;;;0.98;0.60;;;;;;;15.07;100.00;100908.59;5024256;28;20514;-88
2021/08/20 09:51:51;;;;;;;0.98;0.60;;;;;;;15.21;100.00;100925.84;5022014;28;20722;-89
2021/08/20 09:54:26;;;;;;;0.50;0.50;;;;;;;15.26;100.00;100913.94;5017529;28;20049;-87
2021/08/20 09:56:55;;;;;;;0.77;0.70;;;;;;;15.23;100.00;100917.31;5020262;28;20710;-86
2021/08/20 09:59:30;;;;;;;1.70;0.70;;;;;;;15.15;100.00;100916.09;5022595;28;20690;-87
2021/08/20 10:02:05;;;;;;;1.88;0.70;;;;;;;15.10;100.00;100905.25;5026299;28;20053;-88
2021/08/20 10:04:37;;;;;;;0.50;0.50;;;;;;;15.28;100.00;100911.72;5023617;28;20068;-87
2021/08/20 10:07:17;;;;;;;0.55;0.52;;;;;;;15.51;100.00;100906.31;5024498;28;21539;-85
2021/08/20 10:09:47;;;;;;;0.95;0.60;;;;;;;15.47;100.00;100915.16;5020466;28;20057;-86
2021/08/20 10:12:22;;;;;;;1.08;0.60;;;;;;;15.55;100.00;100912.78;5022816;28;20087;-84
2021/08/20 10:14:55;;;;;;;0.50;0.50;;;;;;;15.44;100.00;100904.00;5024667;28;20053;-86
2021/08/20 10:17:31;;;;;;;0.40;0.40;;;;;;;15.58;100.00;100907.53;5022865;28;20103;-87
2021/08/20 10:20:05;;;;;;;0.65;0.52;;;;;;;15.56;100.00;100897.97;5023966;28;20500;-84
2021/08/20 10:22:39;;;;;;;0.65;0.60;;;;;;;15.74;100.00;100905.25;5021346;28;21347;-87
2021/08/20 10:25:12;;;;;;;0.50;0.50;;;;;;;15.72;100.00;100909.44;5020290;28;20522;-86
2021/08/20 10:27:46;;;;;;;1.00;0.70;;;;;;;15.88;99.78;100894.25;5022074;28;21390;-88
2021/08/20 10:30:19;;;;;;;0.80;0.70;;;;;;;15.93;100.00;100899.59;5023805;28;20057;-85
2021/08/20 10:33:01;;;;;;;0.75;0.70;;;;;;;15.94;100.00;100895.75;5024272;28;20041;-86
2021/08/20 10:35:51;;;;;;;0.50;0.50;;;;;;;15.98;100.00;100905.00;5024732;28;20041;-86
2021/08/20 10:38:25;;;;;;;1.00;0.70;;;;;;;15.80;100.00;100905.97;5022062;28;20072;-86
2021/08/20 10:41:11;;;;;;;0.45;0.45;;;;;;;15.71;100.00;100899.56;5024264;28;20056;-86
2021/08/20 10:43:56;;;;;;;1.08;0.50;;;;;;;15.67;100.00;100893.06;5023792;28;20061;-85
2021/08/20 10:47:06;;;;;;;1.02;0.70;;;;;;;15.79;99.76;100904.31;5024024;28;20053;-84
2021/08/20 10:49:46;;;;;;;1.77;0.77;;;;;;;15.96;100.00;100898.19;5026130;28;20060;-87
2021/08/20 10:52:34;;;;;;;0.82;0.80;;;;;;;15.93;99.45;100896.88;5022516;28;20045;-88
2021/08/20 10:55:24;;;;;;;1.15;0.95;;;;;;;16.20;100.00;100900.63;5023140;28;20068;-86
2021/08/20 10:58:10;;;;;;;1.70;1.13;;;;;;;16.42;100.00;100904.47;5022721;28;20699;-86
2021/08/20 11:00:56;;;;;;;1.30;1.00;;;;;;;16.34;98.04;100903.31;5027702;28;20056;-86
2021/08/20 11:03:45;;;;;;;3.15;1.08;;;;;;;16.27;97.50;100909.25;5031888;28;20065;-87
2021/08/20 11:06:52;;;;;;;1.15;1.00;;;;;;;16.21;100.00;100915.16;5036812;28;20060;-87
2021/08/20 11:09:27;;;;;;;1.13;0.98;;;;;;;16.17;97.10;100917.72;5030086;28;20056;-86
2021/08/20 11:12:00;;;;;;;1.30;0.90;;;;;;;15.99;98.84;100916.75;5029167;28;20049;-88
2021/08/20 11:14:37;;;;;;;1.40;1.17;;;;;;;16.01;96.82;100921.97;5032826;28;20063;-85
2021/08/20 11:17:11;;;;;;;1.80;1.40;;;;;;;15.99;100.00;100922.25;5027640;28;20040;-87
2021/08/20 11:19:54;;;;;;;1.83;1.30;;;;;;;15.97;100.00;100916.28;5026095;28;20080;-85
2021/08/20 11:22:30;;;;;;;1.50;1.20;;;;;;;15.91;100.00;100920.25;5029243;28;21403;-85
2021/08/20 11:25:11;;;;;;;2.28;1.73;;;;;;;15.80;100.00;100917.75;5028391;28;20057;-86
2021/08/20 11:28:05;;;;;;;2.10;1.23;;;;;;;15.79;100.00;100918.88;5029134;28;20041;-84
2021/08/20 11:30:40;;;;;;;2.38;1.60;;;;;;;15.77;100.00;100926.59;5030244;28;20061;-87
2021/08/20 11:33:19;;;;;;;1.77;1.50;;;;;;;15.91;100.00;100915.59;5029883;28;20055;-87
2021/08/20 11:35:57;;;;;;;1.92;1.50;;;;;;;15.75;100.00;100915.09;5028454;28;20191;-85
2021/08/20 11:38:31;;;;;;;2.45;1.70;;;;;;;15.74;100.00;100926.38;5030815;28;20057;-84
2021/08/20 11:41:09;;;;;;;2.50;1.80;;;;;;;15.68;100.00;100909.22;5026356;28;20068;-87
2021/08/20 11:43:46;;;;;;;2.47;1.80;;;;;;;15.56;100.00;100920.72;5024853;28;20096;-85
2021/08/20 11:46:20;;;;;;;2.58;1.50;;;;;;;15.54;100.00;100914.75;5031561;28;20056;-86
2021/08/20 11:48:56;;;;;;;2.72;1.60;;;;;;;15.51;100.00;100903.56;5029341;28;20053;-84
2021/08/20 11:51:26;;;;;;;2.30;1.60;;;;;;;15.45;100.00;100919.31;5029126;28;20053;-86
2021/08/20 11:54:05;;;;;;;3.00;1.80;;;;;;;15.34;100.00;100918.72;5033292;28;20065;-85
2021/08/20 11:56:33;;;;;;;1.70;1.25;;;;;;;15.73;100.00;100928.31;5031780;28;20056;-86
2021/08/20 11:59:09;;;;;;;2.10;1.48;;;;;;;15.57;100.00;100925.09;5029947;28;20058;-87